Time,TemperatureF,DewpointF,PressureIn,WindDirection,WindDirectionDegrees,WindSpeedMPH,WindSpeedGustMPH,Humidity,HourlyPrecipIn,Conditions,Clouds,dailyrainin,SoftwareType,DateUTC
2013-07-02 00:00:00,59.7,52.6,30.08,SE,135,0.0,2.2,77,0.00,,,0.00,WUHU21636XXSP,2013-07-01 22:00:00,
2013-07-02 00:05:00,59.7,52.9,30.08,ESE,113,1.8,2.2,78,0.00,,,0.00,WUHU21636XXSP,2013-07-01 22:05:00,
2013-07-02 00:10:00,59.5,52.7,30.08,ESE,113,0.0,1.8,78,0.00,,,0.00,WUHU21636XXSP,2013-07-01 22:10:00,
2013-07-02 00:15:00,59.2,52.4,30.08,SE,135,0.9,1.8,78,0.00,,,0.00,WUHU21636XXSP,2013-07-01 22:15:00,
2013-07-02 00:20:00,59.2,52.4,30.08,SE,135,1.6,1.6,78,0.00,,,0.00,WUHU21636XXSP,2013-07-01 22:20:00,
2013-07-02 00:25:00,59.2,52.4,30.08,ESE,113,2.7,2.7,78,0.00,,,0.00,WUHU21636XXSP,2013-07-01 22:25:00,
2013-07-02 00:30:00,58.8,52.4,30.08,SE,135,1.3,2.7,79,0.00,,,0.00,WUHU21636XXSP,2013-07-01 22:30:00,
2013-07-02 00:35:00,58.8,52.4,30.08,SE,135,1.6,2.7,79,0.00,,,0.00,WUHU21636XXSP,2013-07-01 22:35:00,
2013-07-02 00:40:00,58.6,52.2,30.08,SE,135,1.3,1.6,79,0.00,,,0.00,WUHU21636XXSP,2013-07-01 22:40:00,
2013-07-02 00:45:00,58.6,52.2,30.08,SE,135,2.7,2.7,79,0.00,,,0.00,WUHU21636XXSP,2013-07-01 22:45:00,
2013-07-02 00:50:00,58.6,52.2,30.08,SE,135,1.6,2.7,79,0.00,,,0.00,WUHU21636XXSP,2013-07-01 22:50:00,
2013-07-02 00:55:00,58.3,51.9,30.08,SE,135,0.4,2.7,79,0.00,,,0.00,WUHU21636XXSP,2013-07-01 22:55:00,
2013-07-02 01:00:00,58.3,52.2,30.08,ESE,113,1.3,1.6,80,0.00,,,0.00,WUHU21636XXSP,2013-07-01 23:00:00,
2013-07-02 01:05:00,58.3,52.2,30.08,SE,135,0.0,1.3,80,0.00,,,0.00,WUHU21636XXSP,2013-07-01 23:05:00,
2013-07-02 01:10:00,58.1,52.0,30.08,SE,135,0.0,1.3,80,0.00,,,0.00,WUHU21636XXSP,2013-07-01 23:10:00,
2013-07-02 01:15:00,57.9,51.8,30.07,SE,135,0.0,0.0,80,0.00,,,0.00,WUHU21636XXSP,2013-07-01 23:15:00,
2013-07-02 01:20:00,57.9,51.8,30.07,SE,135,0.0,0.0,80,0.00,,,0.00,WUHU21636XXSP,2013-07-01 23:20:00,
2013-07-02 01:25:00,57.9,51.8,30.07,SE,135,0.0,0.0,80,0.00,,,0.00,WUHU21636XXSP,2013-07-01 23:25:00,
2013-07-02 01:30:00,57.9,52.1,30.07,SE,135,0.0,0.0,81,0.00,,,0.00,WUHU21636XXSP,2013-07-01 23:30:00,
2013-07-02 01:35:00,57.7,52.0,30.07,SE,135,0.0,0.0,81,0.00,,,0.00,WUHU21636XXSP,2013-07-01 23:35:00,
2013-07-02 01:40:00,57.7,52.0,30.07,SE,135,0.7,0.7,81,0.00,,,0.00,WUHU21636XXSP,2013-07-01 23:40:00,
2013-07-02 01:45:00,57.7,52.0,30.07,SE,135,0.0,0.7,81,0.00,,,0.00,WUHU21636XXSP,2013-07-01 23:45:00,
2013-07-02 01:50:00,57.7,52.3,30.07,SSE,158,0.9,0.9,82,0.00,,,0.00,WUHU21636XXSP,2013-07-01 23:50:00,
2013-07-02 01:55:00,57.6,52.2,30.07,West,270,0.0,0.9,82,0.00,,,0.00,WUHU21636XXSP,2013-07-01 23:55:00,
2013-07-02 02:00:00,57.6,52.2,30.07,West,270,0.0,0.9,82,0.00,,,0.00,WUHU21636XXSP,2013-07-02 00:00:00,
2013-07-02 02:05:00,57.4,52.0,30.07,SW,225,0.0,0.0,82,0.00,,,0.00,WUHU21636XXSP,2013-07-02 00:05:00,
2013-07-02 02:10:00,57.4,52.0,30.07,SW,225,0.0,0.0,82,0.00,,,0.00,WUHU21636XXSP,2013-07-02 00:10:00,
2013-07-02 02:15:00,57.0,51.6,30.06,SW,225,0.0,0.0,82,0.00,,,0.00,WUHU21636XXSP,2013-07-02 00:15:00,
2013-07-02 02:20:00,56.8,51.4,30.06,SW,225,0.0,0.0,82,0.00,,,0.00,WUHU21636XXSP,2013-07-02 00:20:00,
2013-07-02 02:25:00,56.8,51.4,30.06,SW,225,0.0,0.0,82,0.00,,,0.00,WUHU21636XXSP,2013-07-02 00:25:00,
2013-07-02 02:30:00,56.8,51.4,30.06,WSW,248,0.0,0.0,82,0.00,,,0.00,WUHU21636XXSP,2013-07-02 00:30:00,
2013-07-02 02:35:00,56.5,51.4,30.06,WSW,248,0.0,0.0,83,0.00,,,0.00,WUHU21636XXSP,2013-07-02 00:35:00,
2013-07-02 02:40:00,56.3,51.2,30.06,West,270,1.1,1.1,83,0.00,,,0.00,WUHU21636XXSP,2013-07-02 00:40:00,
2013-07-02 02:45:00,56.3,51.2,30.06,West,270,0.0,1.1,83,0.00,,,0.00,WUHU21636XXSP,2013-07-02 00:45:00,
2013-07-02 02:50:00,56.1,51.0,30.06,West,270,0.0,1.1,83,0.00,,,0.00,WUHU21636XXSP,2013-07-02 00:50:00,
2013-07-02 02:55:00,56.1,51.3,30.06,West,270,0.0,0.0,84,0.00,,,0.00,WUHU21636XXSP,2013-07-02 00:55:00,
2013-07-02 03:00:00,55.9,51.1,30.06,West,270,0.0,0.0,84,0.00,,,0.00,WUHU21636XXSP,2013-07-02 01:00:00,
2013-07-02 03:05:00,55.9,51.1,30.06,West,270,0.0,0.0,84,0.00,,,0.00,WUHU21636XXSP,2013-07-02 01:05:00,
2013-07-02 03:10:00,55.8,51.0,30.05,West,270,0.0,0.0,84,0.00,,,0.00,WUHU21636XXSP,2013-07-02 01:10:00,
2013-07-02 03:15:00,55.6,51.2,30.05,West,270,0.0,0.0,85,0.00,,,0.00,WUHU21636XXSP,2013-07-02 01:15:00,
2013-07-02 03:20:00,55.6,51.2,30.05,West,270,0.0,0.0,85,0.00,,,0.00,WUHU21636XXSP,2013-07-02 01:20:00,
2013-07-02 03:25:00,55.6,51.2,30.05,West,270,0.0,0.0,85,0.00,,,0.00,WUHU21636XXSP,2013-07-02 01:25:00,
2013-07-02 03:30:00,55.4,51.0,30.05,West,270,0.0,0.0,85,0.00,,,0.00,WUHU21636XXSP,2013-07-02 01:30:00,
2013-07-02 03:35:00,55.2,50.8,30.05,West,270,0.0,0.0,85,0.00,,,0.00,WUHU21636XXSP,2013-07-02 01:35:00,
2013-07-02 03:40:00,55.0,50.6,30.05,West,270,0.0,0.0,85,0.00,,,0.00,WUHU21636XXSP,2013-07-02 01:40:00,
2013-07-02 03:45:00,55.0,50.6,30.04,West,270,0.0,0.0,85,0.00,,,0.00,WUHU21636XXSP,2013-07-02 01:45:00,
2013-07-02 03:50:00,55.0,50.6,30.04,West,270,0.0,0.0,85,0.00,,,0.00,WUHU21636XXSP,2013-07-02 01:50:00,
2013-07-02 03:55:00,54.7,50.6,30.05,West,270,0.0,0.0,86,0.00,,,0.00,WUHU21636XXSP,2013-07-02 01:55:00,
2013-07-02 04:00:00,54.7,50.6,30.04,West,270,0.0,0.0,86,0.00,,,0.00,WUHU21636XXSP,2013-07-02 02:00:00,
2013-07-02 04:05:00,54.7,50.6,30.04,West,270,0.0,0.0,86,0.00,,,0.00,WUHU21636XXSP,2013-07-02 02:05:00,
2013-07-02 04:10:00,54.5,50.4,30.05,WNW,293,0.0,0.0,86,0.00,,,0.00,WUHU21636XXSP,2013-07-02 02:10:00,
2013-07-02 04:15:00,54.5,50.4,30.05,WNW,293,0.0,0.0,86,0.00,,,0.00,WUHU21636XXSP,2013-07-02 02:15:00,
2013-07-02 04:20:00,54.5,50.7,30.05,WNW,293,0.0,0.0,87,0.00,,,0.00,WUHU21636XXSP,2013-07-02 02:20:00,
2013-07-02 04:25:00,54.3,50.5,30.05,WNW,293,0.0,0.0,87,0.00,,,0.00,WUHU21636XXSP,2013-07-02 02:25:00,
2013-07-02 04:30:00,54.3,50.5,30.05,WNW,293,0.0,0.0,87,0.00,,,0.00,WUHU21636XXSP,2013-07-02 02:30:00,
2013-07-02 04:35:00,54.3,50.5,30.05,WNW,293,0.0,0.0,87,0.00,,,0.00,WUHU21636XXSP,2013-07-02 02:35:00,
2013-07-02 04:40:00,54.3,50.5,30.05,WNW,293,0.0,0.0,87,0.00,,,0.00,WUHU21636XXSP,2013-07-02 02:40:00,
2013-07-02 04:45:00,54.5,51.0,30.05,West,270,0.0,0.0,88,0.00,,,0.00,WUHU21636XXSP,2013-07-02 02:45:00,
2013-07-02 04:50:00,54.3,50.8,30.06,West,270,0.0,0.0,88,0.00,,,0.00,WUHU21636XXSP,2013-07-02 02:50:00,
2013-07-02 04:55:00,54.3,50.8,30.06,West,270,0.0,0.0,88,0.00,,,0.00,WUHU21636XXSP,2013-07-02 02:55:00,
2013-07-02 05:00:00,54.3,50.8,30.05,West,270,0.0,0.0,88,0.00,,,0.00,WUHU21636XXSP,2013-07-02 03:00:00,
2013-07-02 05:05:00,54.3,50.8,30.06,West,270,0.0,0.0,88,0.00,,,0.00,WUHU21636XXSP,2013-07-02 03:05:00,
2013-07-02 05:10:00,54.3,50.8,30.06,West,270,0.0,0.0,88,0.00,,,0.00,WUHU21636XXSP,2013-07-02 03:10:00,
2013-07-02 05:15:00,54.3,51.1,30.06,West,270,0.0,0.0,89,0.00,,,0.00,WUHU21636XXSP,2013-07-02 03:15:00,
2013-07-02 05:20:00,54.3,50.8,30.06,West,270,0.0,0.0,88,0.00,,,0.00,WUHU21636XXSP,2013-07-02 03:20:00,
2013-07-02 05:25:00,54.3,50.8,30.06,West,270,0.0,0.0,88,0.00,,,0.00,WUHU21636XXSP,2013-07-02 03:25:00,
2013-07-02 05:30:00,54.3,50.8,30.06,West,270,0.0,0.0,88,0.00,,,0.00,WUHU21636XXSP,2013-07-02 03:30:00,
2013-07-02 05:35:00,54.3,51.1,30.06,West,270,0.0,0.0,89,0.00,,,0.00,WUHU21636XXSP,2013-07-02 03:35:00,
2013-07-02 05:40:00,54.5,51.3,30.06,West,270,0.0,0.0,89,0.00,,,0.00,WUHU21636XXSP,2013-07-02 03:40:00,
2013-07-02 05:45:00,54.5,51.3,30.06,West,270,0.0,0.0,89,0.00,,,0.00,WUHU21636XXSP,2013-07-02 03:45:00,
2013-07-02 05:50:00,54.7,51.5,30.06,West,270,0.0,0.0,89,0.00,,,0.00,WUHU21636XXSP,2013-07-02 03:50:00,
2013-07-02 05:55:00,54.7,51.5,30.07,West,270,0.0,0.0,89,0.00,,,0.00,WUHU21636XXSP,2013-07-02 03:55:00,
2013-07-02 06:00:00,55.0,51.8,30.07,West,270,0.0,0.0,89,0.00,,,0.00,WUHU21636XXSP,2013-07-02 04:00:00,
2013-07-02 06:05:00,55.0,51.8,30.07,West,270,0.0,0.0,89,0.00,,,0.00,WUHU21636XXSP,2013-07-02 04:05:00,
2013-07-02 06:10:00,55.2,52.0,30.06,West,270,0.7,0.7,89,0.00,,,0.00,WUHU21636XXSP,2013-07-02 04:10:00,
2013-07-02 06:15:00,55.4,52.5,30.07,WNW,293,0.7,0.7,90,0.00,,,0.00,WUHU21636XXSP,2013-07-02 04:15:00,
2013-07-02 06:20:00,55.6,52.7,30.07,WNW,293,0.0,0.7,90,0.00,,,0.00,WUHU21636XXSP,2013-07-02 04:20:00,
2013-07-02 06:25:00,55.8,52.9,30.07,WNW,293,0.0,0.7,90,0.00,,,0.00,WUHU21636XXSP,2013-07-02 04:25:00,
2013-07-02 06:30:00,55.9,53.0,30.07,SE,135,0.0,0.0,90,0.00,,,0.00,WUHU21636XXSP,2013-07-02 04:30:00,
2013-07-02 06:35:00,56.1,52.9,30.07,WNW,293,0.0,0.0,89,0.00,,,0.00,WUHU21636XXSP,2013-07-02 04:35:00,
2013-07-02 06:40:00,56.1,52.9,30.07,WNW,293,0.0,0.0,89,0.00,,,0.00,WUHU21636XXSP,2013-07-02 04:40:00,
2013-07-02 06:45:00,56.5,53.3,30.07,WNW,293,0.0,0.0,89,0.00,,,0.00,WUHU21636XXSP,2013-07-02 04:45:00,
2013-07-02 06:50:00,56.5,53.3,30.07,WNW,293,0.0,0.0,89,0.00,,,0.00,WUHU21636XXSP,2013-07-02 04:50:00,
2013-07-02 06:55:00,56.7,53.5,30.07,WNW,293,0.0,0.0,89,0.00,,,0.00,WUHU21636XXSP,2013-07-02 04:55:00,
2013-07-02 07:00:00,56.8,53.3,30.07,WNW,293,0.0,0.0,88,0.00,,,0.00,WUHU21636XXSP,2013-07-02 05:00:00,
2013-07-02 07:05:00,57.0,53.8,30.07,WNW,293,0.0,0.0,89,0.00,,,0.00,WUHU21636XXSP,2013-07-02 05:05:00,
2013-07-02 07:10:00,57.4,54.2,30.07,SSE,158,0.0,0.0,89,0.00,,,0.00,WUHU21636XXSP,2013-07-02 05:10:00,
2013-07-02 07:15:00,57.7,53.8,30.07,ESE,113,0.0,0.0,87,0.00,,,0.00,WUHU21636XXSP,2013-07-02 05:15:00,
2013-07-02 07:20:00,57.9,54.0,30.07,ESE,113,0.0,0.0,87,0.00,,,0.00,WUHU21636XXSP,2013-07-02 05:20:00,
2013-07-02 07:25:00,58.1,54.2,30.07,ESE,113,0.0,0.0,87,0.00,,,0.00,WUHU21636XXSP,2013-07-02 05:25:00,
2013-07-02 07:30:00,58.3,54.1,30.07,NNW,338,0.0,0.0,86,0.00,,,0.00,WUHU21636XXSP,2013-07-02 05:30:00,
2013-07-02 07:35:00,58.5,54.3,30.07,NNW,338,0.0,0.0,86,0.00,,,0.00,WUHU21636XXSP,2013-07-02 05:35:00,
2013-07-02 07:40:00,58.6,54.1,30.08,NW,315,0.0,0.0,85,0.00,,,0.00,WUHU21636XXSP,2013-07-02 05:40:00,
2013-07-02 07:45:00,58.8,54.3,30.08,NW,315,1.3,1.3,85,0.00,,,0.00,WUHU21636XXSP,2013-07-02 05:45:00,
2013-07-02 07:50:00,59.2,54.7,30.08,NW,315,0.0,1.3,85,0.00,,,0.00,WUHU21636XXSP,2013-07-02 05:50:00,
2013-07-02 07:55:00,59.2,54.4,30.08,NW,315,0.0,1.3,84,0.00,,,0.00,WUHU21636XXSP,2013-07-02 05:55:00,
2013-07-02 08:00:00,59.5,54.7,30.09,NW,315,0.0,0.0,84,0.00,,,0.00,WUHU21636XXSP,2013-07-02 06:00:00,
2013-07-02 08:05:00,59.7,54.9,30.08,WNW,293,0.0,0.0,84,0.00,,,0.00,WUHU21636XXSP,2013-07-02 06:05:00,
2013-07-02 08:10:00,59.9,55.1,30.08,WNW,293,0.0,0.0,84,0.00,,,0.00,WUHU21636XXSP,2013-07-02 06:10:00,
2013-07-02 08:15:00,60.1,55.3,30.08,WNW,293,0.0,0.0,84,0.00,,,0.00,WUHU21636XXSP,2013-07-02 06:15:00,
2013-07-02 08:20:00,60.4,55.6,30.08,WNW,293,0.0,0.0,84,0.00,,,0.00,WUHU21636XXSP,2013-07-02 06:20:00,
2013-07-02 08:25:00,61.0,55.8,30.08,WNW,293,0.7,0.7,83,0.00,,,0.00,WUHU21636XXSP,2013-07-02 06:25:00,
2013-07-02 08:30:00,61.3,56.1,30.08,WNW,293,0.9,0.9,83,0.00,,,0.00,WUHU21636XXSP,2013-07-02 06:30:00,
2013-07-02 08:35:00,61.7,55.9,30.08,ESE,113,1.6,1.6,81,0.00,,,0.00,WUHU21636XXSP,2013-07-02 06:35:00,
2013-07-02 08:40:00,62.2,56.0,30.08,SE,135,0.0,1.6,80,0.00,,,0.00,WUHU21636XXSP,2013-07-02 06:40:00,
2013-07-02 08:45:00,62.2,55.7,30.08,SE,135,0.0,1.6,79,0.00,,,0.00,WUHU21636XXSP,2013-07-02 06:45:00,
2013-07-02 08:50:00,62.6,55.7,30.08,SE,135,0.0,0.0,78,0.00,,,0.00,WUHU21636XXSP,2013-07-02 06:50:00,
2013-07-02 08:55:00,63.0,56.1,30.08,SE,135,0.0,0.0,78,0.00,,,0.00,WUHU21636XXSP,2013-07-02 06:55:00,
2013-07-02 09:00:00,63.1,55.9,30.07,SE,135,0.0,0.0,77,0.00,,,0.00,WUHU21636XXSP,2013-07-02 07:00:00,
2013-07-02 09:05:00,63.3,55.7,30.07,SE,135,0.0,0.0,76,0.00,,,0.00,WUHU21636XXSP,2013-07-02 07:05:00,
2013-07-02 09:10:00,63.7,55.7,30.07,SE,135,0.0,0.0,75,0.00,,,0.00,WUHU21636XXSP,2013-07-02 07:10:00,
2013-07-02 09:15:00,64.0,55.7,30.07,SE,135,0.0,0.0,74,0.00,,,0.00,WUHU21636XXSP,2013-07-02 07:15:00,
2013-07-02 09:20:00,64.6,55.9,30.07,SE,135,0.9,0.9,73,0.00,,,0.00,WUHU21636XXSP,2013-07-02 07:20:00,
2013-07-02 09:25:00,64.9,56.2,30.07,WNW,293,0.9,0.9,73,0.00,,,0.00,WUHU21636XXSP,2013-07-02 07:25:00,
2013-07-02 09:30:00,65.1,56.4,30.07,WNW,293,0.4,0.9,73,0.00,,,0.00,WUHU21636XXSP,2013-07-02 07:30:00,
2013-07-02 09:35:00,65.8,57.0,30.07,WNW,293,0.0,0.9,73,0.00,,,0.00,WUHU21636XXSP,2013-07-02 07:35:00,
2013-07-02 09:40:00,66.0,57.2,30.07,WNW,293,0.0,0.4,73,0.00,,,0.00,WUHU21636XXSP,2013-07-02 07:40:00,
2013-07-02 09:45:00,66.4,57.6,30.07,SSW,203,0.0,0.0,73,0.00,,,0.00,WUHU21636XXSP,2013-07-02 07:45:00,
2013-07-02 09:50:00,66.9,58.1,30.06,WNW,293,1.6,1.6,73,0.00,,,0.00,WUHU21636XXSP,2013-07-02 07:50:00,
2013-07-02 09:55:00,68.2,58.2,30.06,NW,315,1.3,1.6,70,0.00,,,0.00,WUHU21636XXSP,2013-07-02 07:55:00,
2013-07-02 10:00:00,69.1,59.1,30.06,WNW,293,0.0,1.6,70,0.00,,,0.00,WUHU21636XXSP,2013-07-02 08:00:00,
2013-07-02 10:05:00,69.8,58.5,30.06,West,270,0.0,1.3,67,0.00,,,0.00,WUHU21636XXSP,2013-07-02 08:05:00,
2013-07-02 10:10:00,70.3,59.0,30.06,SW,225,0.0,0.0,67,0.00,,,0.00,WUHU21636XXSP,2013-07-02 08:10:00,
2013-07-02 10:15:00,70.7,59.4,30.06,NW,315,1.3,1.3,67,0.00,,,0.00,WUHU21636XXSP,2013-07-02 08:15:00,
2013-07-02 10:20:00,70.9,59.6,30.06,ESE,113,0.9,1.3,67,0.00,,,0.00,WUHU21636XXSP,2013-07-02 08:20:00,
2013-07-02 10:25:00,71.4,59.6,30.06,SE,135,0.0,1.3,66,0.00,,,0.00,WUHU21636XXSP,2013-07-02 08:25:00,
2013-07-02 10:30:00,71.8,59.6,30.06,WNW,293,0.0,0.9,65,0.00,,,0.00,WUHU21636XXSP,2013-07-02 08:30:00,
2013-07-02 10:35:00,72.1,59.9,30.06,SE,135,0.7,0.7,65,0.00,,,0.00,WUHU21636XXSP,2013-07-02 08:35:00,
2013-07-02 10:40:00,72.3,59.2,30.05,ESE,113,1.3,1.3,63,0.00,,,0.00,WUHU21636XXSP,2013-07-02 08:40:00,
2013-07-02 10:45:00,73.0,59.9,30.05,WNW,293,0.0,1.3,63,0.00,,,0.00,WUHU21636XXSP,2013-07-02 08:45:00,
2013-07-02 10:50:00,73.0,59.4,30.05,WNW,293,0.0,1.3,62,0.00,,,0.00,WUHU21636XXSP,2013-07-02 08:50:00,
2013-07-02 10:55:00,73.6,60.4,30.05,West,270,0.0,0.0,63,0.00,,,0.00,WUHU21636XXSP,2013-07-02 08:55:00,
2013-07-02 11:00:00,73.8,59.7,30.05,SE,135,0.0,0.0,61,0.00,,,0.00,WUHU21636XXSP,2013-07-02 09:00:00,
2013-07-02 11:05:00,73.9,59.3,30.05,ESE,113,0.9,0.9,60,0.00,,,0.00,WUHU21636XXSP,2013-07-02 09:05:00,
2013-07-02 11:10:00,74.7,60.1,30.05,WNW,293,0.0,0.9,60,0.00,,,0.00,WUHU21636XXSP,2013-07-02 09:10:00,
2013-07-02 11:15:00,75.2,59.6,30.05,WNW,293,0.0,0.9,58,0.00,,,0.00,WUHU21636XXSP,2013-07-02 09:15:00,
2013-07-02 11:20:00,75.7,59.6,30.05,WNW,293,2.7,2.7,57,0.00,,,0.00,WUHU21636XXSP,2013-07-02 09:20:00,
2013-07-02 11:25:00,76.5,59.8,30.04,WNW,293,2.2,2.7,56,0.00,,,0.00,WUHU21636XXSP,2013-07-02 09:25:00,
2013-07-02 11:30:00,76.6,59.9,30.04,WNW,293,1.8,2.7,56,0.00,,,0.00,WUHU21636XXSP,2013-07-02 09:30:00,
2013-07-02 11:35:00,76.6,58.3,30.04,ESE,113,0.4,2.2,53,0.00,,,0.00,WUHU21636XXSP,2013-07-02 09:35:00,
2013-07-02 11:40:00,77.2,59.4,30.04,SE,135,0.0,1.8,54,0.00,,,0.00,WUHU21636XXSP,2013-07-02 09:40:00,
2013-07-02 11:45:00,77.2,58.9,30.04,ESE,113,0.0,0.4,53,0.00,,,0.00,WUHU21636XXSP,2013-07-02 09:45:00,
2013-07-02 11:50:00,77.5,59.2,30.04,ESE,113,1.1,1.1,53,0.00,,,0.00,WUHU21636XXSP,2013-07-02 09:50:00,
2013-07-02 11:55:00,78.1,57.5,30.04,WNW,293,1.3,1.3,49,0.00,,,0.00,WUHU21636XXSP,2013-07-02 09:55:00,
2013-07-02 12:00:00,78.8,56.9,30.04,WNW,293,1.8,1.8,47,0.00,,,0.00,WUHU21636XXSP,2013-07-02 10:00:00,
2013-07-02 12:05:00,79.3,57.4,30.04,SE,135,0.0,1.8,47,0.00,,,0.00,WUHU21636XXSP,2013-07-02 10:05:00,
2013-07-02 12:10:00,79.2,56.0,30.04,South,180,0.7,1.8,45,0.00,,,0.00,WUHU21636XXSP,2013-07-02 10:10:00,
2013-07-02 12:15:00,78.3,55.8,30.04,ESE,113,2.9,2.9,46,0.00,,,0.00,WUHU21636XXSP,2013-07-02 10:15:00,
2013-07-02 12:20:00,78.1,56.9,30.03,SE,135,0.4,2.9,48,0.00,,,0.00,WUHU21636XXSP,2013-07-02 10:20:00,
2013-07-02 12:25:00,78.1,56.9,30.03,SSE,158,2.9,2.9,48,0.00,,,0.00,WUHU21636XXSP,2013-07-02 10:25:00,
2013-07-02 12:30:00,78.3,57.1,30.04,ESE,113,1.8,2.9,48,0.00,,,0.00,WUHU21636XXSP,2013-07-02 10:30:00,
2013-07-02 12:35:00,78.4,57.2,30.04,ESE,113,3.4,3.4,48,0.00,,,0.00,WUHU21636XXSP,2013-07-02 10:35:00,
2013-07-02 12:40:00,78.6,58.5,30.03,NNW,338,0.4,3.4,50,0.00,,,0.00,WUHU21636XXSP,2013-07-02 10:40:00,
2013-07-02 12:45:00,79.2,57.3,30.03,SE,135,1.1,3.4,47,0.00,,,0.00,WUHU21636XXSP,2013-07-02 10:45:00,
2013-07-02 12:50:00,79.5,57.6,30.03,SE,135,0.9,1.1,47,0.00,,,0.00,WUHU21636XXSP,2013-07-02 10:50:00,
2013-07-02 12:55:00,80.2,57.0,30.03,SSE,158,1.8,1.8,45,0.00,,,0.00,WUHU21636XXSP,2013-07-02 10:55:00,
2013-07-02 13:00:00,80.6,56.7,30.03,SE,135,4.3,4.3,44,0.00,,,0.00,WUHU21636XXSP,2013-07-02 11:00:00,
2013-07-02 13:05:00,80.2,55.7,30.03,SE,135,0.7,4.3,43,0.00,,,0.00,WUHU21636XXSP,2013-07-02 11:05:00,
2013-07-02 13:10:00,79.7,55.9,30.02,SE,135,2.5,4.3,44,0.00,,,0.00,WUHU21636XXSP,2013-07-02 11:10:00,
2013-07-02 13:15:00,80.2,57.0,30.02,SE,135,2.9,2.9,45,0.00,,,0.00,WUHU21636XXSP,2013-07-02 11:15:00,
2013-07-02 13:20:00,80.4,55.8,30.02,SE,135,1.6,2.9,43,0.00,,,0.00,WUHU21636XXSP,2013-07-02 11:20:00,
2013-07-02 13:25:00,80.8,56.2,30.02,WNW,293,4.5,4.5,43,0.00,,,0.00,WUHU21636XXSP,2013-07-02 11:25:00,
2013-07-02 13:30:00,81.1,56.5,30.02,NW,315,0.0,4.5,43,0.00,,,0.00,WUHU21636XXSP,2013-07-02 11:30:00,
2013-07-02 13:35:00,80.4,55.8,30.02,SE,135,1.3,4.5,43,0.00,,,0.00,WUHU21636XXSP,2013-07-02 11:35:00,
2013-07-02 13:40:00,80.1,56.2,30.02,SE,135,0.0,1.3,44,0.00,,,0.00,WUHU21636XXSP,2013-07-02 11:40:00,
2013-07-02 13:45:00,80.2,56.3,30.02,SW,225,1.1,1.3,44,0.00,,,0.00,WUHU21636XXSP,2013-07-02 11:45:00,
2013-07-02 13:50:00,79.9,58.5,30.03,SSW,203,1.8,1.8,48,0.00,,,0.00,WUHU21636XXSP,2013-07-02 11:50:00,
2013-07-02 13:55:00,77.5,58.6,30.03,WNW,293,0.0,1.8,52,0.00,,,0.00,WUHU21636XXSP,2013-07-02 11:55:00,
2013-07-02 14:00:00,75.9,57.1,30.03,West,270,2.2,2.2,52,0.00,,,0.00,WUHU21636XXSP,2013-07-02 12:00:00,
2013-07-02 14:05:00,74.5,56.9,30.03,WNW,293,0.0,2.2,54,0.00,,,0.00,WUHU21636XXSP,2013-07-02 12:05:00,
2013-07-02 14:10:00,75.9,58.7,30.02,WNW,293,0.0,2.2,55,0.00,,,0.00,WUHU21636XXSP,2013-07-02 12:10:00,
2013-07-02 14:15:00,77.7,55.9,30.02,WNW,293,2.7,2.7,47,0.00,,,0.00,WUHU21636XXSP,2013-07-02 12:15:00,
2013-07-02 14:20:00,77.5,54.5,30.03,WNW,293,0.9,2.7,45,0.00,,,0.00,WUHU21636XXSP,2013-07-02 12:20:00,
2013-07-02 14:25:00,76.8,55.1,30.02,WNW,293,0.0,2.7,47,0.00,,,0.00,WUHU21636XXSP,2013-07-02 12:25:00,
2013-07-02 14:30:00,77.2,56.0,30.02,WNW,293,0.0,0.9,48,0.00,,,0.00,WUHU21636XXSP,2013-07-02 12:30:00,
2013-07-02 14:35:00,78.6,58.5,30.02,NW,315,0.0,0.0,50,0.00,,,0.00,WUHU21636XXSP,2013-07-02 12:35:00,
2013-07-02 14:40:00,79.5,58.2,30.02,WNW,293,0.0,0.0,48,0.00,,,0.00,WUHU21636XXSP,2013-07-02 12:40:00,
2013-07-02 14:45:00,79.7,58.3,30.02,WNW,293,0.0,0.0,48,0.00,,,0.00,WUHU21636XXSP,2013-07-02 12:45:00,
2013-07-02 14:50:00,80.4,57.8,30.01,WNW,293,0.0,0.0,46,0.00,,,0.00,WUHU21636XXSP,2013-07-02 12:50:00,
2013-07-02 14:55:00,81.1,58.4,30.01,WNW,293,1.1,1.1,46,0.00,,,0.00,WUHU21636XXSP,2013-07-02 12:55:00,
2013-07-02 15:00:00,81.1,57.8,30.01,WNW,293,0.0,1.1,45,0.00,,,0.00,WUHU21636XXSP,2013-07-02 13:00:00,
2013-07-02 15:05:00,79.2,57.3,30.01,WNW,293,2.2,2.2,47,0.00,,,0.00,WUHU21636XXSP,2013-07-02 13:05:00,
2013-07-02 15:10:00,80.2,60.6,30.01,WNW,293,0.0,2.2,51,0.00,,,0.00,WUHU21636XXSP,2013-07-02 13:10:00,
2013-07-02 15:15:00,81.9,61.6,30.01,WNW,293,0.0,2.2,50,0.00,,,0.00,WUHU21636XXSP,2013-07-02 13:15:00,
2013-07-02 15:20:00,82.4,59.6,30.01,SSE,158,1.6,1.6,46,0.00,,,0.00,WUHU21636XXSP,2013-07-02 13:20:00,
2013-07-02 15:25:00,82.9,61.3,30.01,South,180,1.6,1.6,48,0.00,,,0.00,WUHU21636XXSP,2013-07-02 13:25:00,
2013-07-02 15:30:00,83.1,58.9,30.01,WNW,293,3.6,3.6,44,0.00,,,0.00,WUHU21636XXSP,2013-07-02 13:30:00,
2013-07-02 15:35:00,82.4,59.6,30.01,WNW,293,1.6,3.6,46,0.00,,,0.00,WUHU21636XXSP,2013-07-02 13:35:00,
2013-07-02 15:40:00,81.7,58.3,30.01,SSE,158,0.0,3.6,45,0.00,,,0.00,WUHU21636XXSP,2013-07-02 13:40:00,
2013-07-02 15:45:00,82.0,58.6,30.00,WNW,293,0.0,1.6,45,0.00,,,0.00,WUHU21636XXSP,2013-07-02 13:45:00,
2013-07-02 15:50:00,82.9,59.4,30.00,WNW,293,1.6,1.6,45,0.00,,,0.00,WUHU21636XXSP,2013-07-02 13:50:00,
2013-07-02 15:55:00,82.9,59.4,30.00,WNW,293,0.0,1.6,45,0.00,,,0.00,WUHU21636XXSP,2013-07-02 13:55:00,
2013-07-02 16:00:00,83.5,60.0,30.00,WNW,293,0.0,1.6,45,0.00,,,0.00,WUHU21636XXSP,2013-07-02 14:00:00,
2013-07-02 16:05:00,83.8,59.6,29.99,WNW,293,3.1,3.1,44,0.00,,,0.00,WUHU21636XXSP,2013-07-02 14:05:00,
2013-07-02 16:10:00,83.7,59.5,29.99,WNW,293,0.9,3.1,44,0.00,,,0.00,WUHU21636XXSP,2013-07-02 14:10:00,
2013-07-02 16:15:00,84.6,59.6,29.99,ESE,113,0.4,3.1,43,0.00,,,0.00,WUHU21636XXSP,2013-07-02 14:15:00,
2013-07-02 16:20:00,84.6,59.6,29.99,ESE,113,2.7,2.7,43,0.00,,,0.00,WUHU21636XXSP,2013-07-02 14:20:00,
2013-07-02 16:25:00,84.0,59.1,29.99,SE,135,2.5,2.7,43,0.00,,,0.00,WUHU21636XXSP,2013-07-02 14:25:00,
2013-07-02 16:30:00,84.6,59.0,29.99,SE,135,0.0,2.7,42,0.00,,,0.00,WUHU21636XXSP,2013-07-02 14:30:00,
2013-07-02 16:35:00,84.7,59.1,29.99,SE,135,1.3,2.5,42,0.00,,,0.00,WUHU21636XXSP,2013-07-02 14:35:00,
2013-07-02 16:40:00,84.6,59.0,29.99,SE,135,3.1,3.1,42,0.00,,,0.00,WUHU21636XXSP,2013-07-02 14:40:00,
2013-07-02 16:45:00,84.0,59.1,29.98,West,270,1.1,3.1,43,0.00,,,0.00,WUHU21636XXSP,2013-07-02 14:45:00,
2013-07-02 16:50:00,83.5,58.6,29.98,West,270,0.0,3.1,43,0.00,,,0.00,WUHU21636XXSP,2013-07-02 14:50:00,
2013-07-02 16:55:00,83.7,59.5,29.98,South,180,1.1,1.1,44,0.00,,,0.00,WUHU21636XXSP,2013-07-02 14:55:00,
2013-07-02 17:00:00,83.3,59.1,29.98,NNW,338,0.9,1.1,44,0.00,,,0.00,WUHU21636XXSP,2013-07-02 15:00:00,
2013-07-02 17:05:00,83.5,59.3,29.98,NW,315,0.0,1.1,44,0.00,,,0.00,WUHU21636XXSP,2013-07-02 15:05:00,
2013-07-02 17:10:00,84.0,59.8,29.98,NNE,23,0.0,0.9,44,0.00,,,0.00,WUHU21636XXSP,2013-07-02 15:10:00,
2013-07-02 17:15:00,84.6,57.6,29.98,SE,135,2.2,2.2,40,0.00,,,0.00,WUHU21636XXSP,2013-07-02 15:15:00,
2013-07-02 17:20:00,83.8,56.1,29.98,SE,135,0.0,2.2,39,0.00,,,0.00,WUHU21636XXSP,2013-07-02 15:20:00,
2013-07-02 17:25:00,84.7,55.5,29.98,WNW,293,1.3,2.2,37,0.00,,,0.00,WUHU21636XXSP,2013-07-02 15:25:00,
2013-07-02 17:30:00,85.1,56.6,29.98,WNW,293,1.3,1.3,38,0.00,,,0.00,WUHU21636XXSP,2013-07-02 15:30:00,
2013-07-02 17:35:00,85.1,57.3,29.98,WNW,293,4.7,4.7,39,0.00,,,0.00,WUHU21636XXSP,2013-07-02 15:35:00,
2013-07-02 17:40:00,85.3,56.7,29.98,WNW,293,4.9,4.9,38,0.00,,,0.00,WUHU21636XXSP,2013-07-02 15:40:00,
2013-07-02 17:45:00,85.1,57.3,29.98,WNW,293,3.1,4.9,39,0.00,,,0.00,WUHU21636XXSP,2013-07-02 15:45:00,
2013-07-02 17:50:00,85.3,56.0,29.97,WNW,293,3.8,4.9,37,0.00,,,0.00,WUHU21636XXSP,2013-07-02 15:50:00,
2013-07-02 17:55:00,84.6,55.4,29.98,NW,315,2.5,3.8,37,0.00,,,0.00,WUHU21636XXSP,2013-07-02 15:55:00,
2013-07-02 18:00:00,84.4,55.2,29.98,WNW,293,2.7,3.8,37,0.00,,,0.00,WUHU21636XXSP,2013-07-02 16:00:00,
2013-07-02 18:05:00,84.7,56.2,29.97,WNW,293,0.0,2.7,38,0.00,,,0.00,WUHU21636XXSP,2013-07-02 16:05:00,
2013-07-02 18:10:00,84.7,55.5,29.97,WNW,293,0.0,2.7,37,0.00,,,0.00,WUHU21636XXSP,2013-07-02 16:10:00,
2013-07-02 18:15:00,84.9,54.9,29.97,WNW,293,2.9,2.9,36,0.00,,,0.00,WUHU21636XXSP,2013-07-02 16:15:00,
2013-07-02 18:17:00,85.1,54.9,29.97,ESE,112,0.0,0.0,36,0.00,,,0.00,WUHU21636XXSP,2013-07-02 16:17:00,
2013-07-02 18:20:00,85.1,55.8,29.97,WNW,293,2.2,2.9,37,0.00,,,0.00,WUHU21636XXSP,2013-07-02 16:20:00,
2013-07-02 18:22:00,84.9,56.3,29.97,WNW,292,2.7,3.1,38,0.00,,,0.00,WUHU21636XXSP,2013-07-02 16:22:00,
2013-07-02 18:25:00,84.6,56.1,29.97,WNW,293,1.3,2.9,38,0.00,,,0.00,WUHU21636XXSP,2013-07-02 16:25:00,
2013-07-02 18:27:00,84.2,56.5,29.97,WNW,292,1.6,3.1,39,0.00,,,0.00,WUHU21636XXSP,2013-07-02 16:27:00,
2013-07-02 18:30:00,84.0,55.6,29.97,WNW,293,0.0,2.2,38,0.00,,,0.00,WUHU21636XXSP,2013-07-02 16:30:00,
2013-07-02 18:32:00,83.8,56.1,29.97,WNW,292,1.3,2.7,39,0.00,,,0.00,WUHU21636XXSP,2013-07-02 16:32:00,
2013-07-02 18:35:00,83.5,56.6,29.97,WNW,293,0.0,1.3,40,0.00,,,0.00,WUHU21636XXSP,2013-07-02 16:35:00,
2013-07-02 18:37:00,83.1,56.3,29.97,WNW,292,1.1,1.6,40,0.00,,,0.00,WUHU21636XXSP,2013-07-02 16:37:00,
2013-07-02 18:40:00,82.9,56.7,29.97,WNW,293,2.2,2.2,41,0.00,,,0.00,WUHU21636XXSP,2013-07-02 16:40:00,
2013-07-02 18:42:00,82.6,57.7,29.97,WNW,292,0.7,2.2,43,0.00,,,0.00,WUHU21636XXSP,2013-07-02 16:42:00,
2013-07-02 18:45:00,82.0,56.6,29.97,WNW,293,2.2,2.2,42,0.00,,,0.00,WUHU21636XXSP,2013-07-02 16:45:00,
2013-07-02 18:47:00,82.0,56.7,29.97,WNW,292,0.4,2.2,42,0.00,,,0.00,WUHU21636XXSP,2013-07-02 16:47:00,
2013-07-02 18:50:00,81.7,56.3,29.97,WNW,293,1.8,2.2,42,0.00,,,0.00,WUHU21636XXSP,2013-07-02 16:50:00,
2013-07-02 18:55:00,81.7,57.0,29.97,WNW,293,1.6,2.2,43,0.00,,,0.00,WUHU21636XXSP,2013-07-02 16:55:00,
2013-07-02 19:00:00,81.7,56.3,29.97,WNW,293,2.2,2.2,42,0.02,,,0.02,WUHU21636XXSP,2013-07-02 17:00:00,
2013-07-02 19:05:00,82.0,57.9,29.97,WNW,293,0.0,2.2,44,0.02,,,0.02,WUHU21636XXSP,2013-07-02 17:05:00,
2013-07-02 19:10:00,82.0,59.2,29.96,WNW,292,1.0,2.0,46,0.00,CLR,,0.04,WeatherDisplay:10.37,2013-07-02 17:10:00,
2013-07-02 19:15:00,81.7,59.6,29.97,WNW,293,0.0,1.1,47,0.02,,,0.02,WUHU21636XXSP,2013-07-02 17:15:00,
2013-07-02 19:20:00,81.3,60.3,29.96,WNW,292,0.0,1.0,49,0.00,CLR,,0.04,WeatherDisplay:10.37,2013-07-02 17:20:00,
2013-07-02 19:25:00,81.3,59.8,29.98,WNW,293,0.0,0.0,48,0.02,,,0.02,WUHU21636XXSP,2013-07-02 17:25:00,
2013-07-02 19:30:00,81.1,60.7,29.97,WNW,292,0.0,0.0,50,0.00,CLR,,0.04,WeatherDisplay:10.37,2013-07-02 17:30:00,
2013-07-02 19:35:00,81.0,60.7,29.98,WNW,293,0.0,0.0,50,0.02,,,0.02,WUHU21636XXSP,2013-07-02 17:35:00,
2013-07-02 19:40:00,80.4,61.2,29.97,WNW,292,0.0,0.0,52,0.00,CLR,,0.04,WeatherDisplay:10.37,2013-07-02 17:40:00,
2013-07-02 19:45:00,80.2,61.7,29.98,WNW,293,0.0,0.0,53,0.02,,,0.02,WUHU21636XXSP,2013-07-02 17:45:00,
2013-07-02 19:50:00,79.9,61.2,29.97,WNW,292,0.0,0.0,53,0.00,CLR,,0.04,WeatherDisplay:10.37,2013-07-02 17:50:00,
2013-07-02 19:55:00,79.7,61.2,29.98,WNW,293,0.0,0.0,53,0.00,,,0.02,WUHU21636XXSP,2013-07-02 17:55:00,
2013-07-02 20:00:00,78.6,61.6,29.97,WNW,292,0.0,0.0,56,0.00,CLR,,0.04,WeatherDisplay:10.37,2013-07-02 18:00:00,
2013-07-02 20:05:00,77.7,61.5,29.98,WNW,293,0.0,0.0,57,0.00,,,0.02,WUHU21636XXSP,2013-07-02 18:05:00,
2013-07-02 20:10:00,77.4,60.9,29.97,WNW,292,0.0,0.0,57,0.00,CLR,,0.04,WeatherDisplay:10.37,2013-07-02 18:10:00,
2013-07-02 20:15:00,76.8,61.1,29.98,WNW,293,0.0,0.0,58,0.00,,,0.02,WUHU21636XXSP,2013-07-02 18:15:00,
2013-07-02 20:20:00,76.3,60.4,29.97,WNW,292,0.0,0.0,58,0.00,CLR,,0.04,WeatherDisplay:10.37,2013-07-02 18:20:00,
2013-07-02 20:25:00,75.9,60.7,29.98,WNW,293,0.0,0.0,59,0.00,,,0.02,WUHU21636XXSP,2013-07-02 18:25:00,
2013-07-02 20:30:00,75.4,61.0,29.97,WNW,292,0.0,0.0,61,0.00,CLR,,0.04,WeatherDisplay:10.37,2013-07-02 18:30:00,
2013-07-02 20:35:00,75.0,60.8,29.98,WNW,293,0.0,0.0,61,0.00,,,0.02,WUHU21636XXSP,2013-07-02 18:35:00,
2013-07-02 20:40:00,74.5,61.3,29.98,WNW,293,2.0,2.0,63,0.00,,,0.02,WUHU21636XXSP,2013-07-02 18:40:00,
2013-07-02 20:45:00,73.9,61.2,29.98,WNW,293,0.0,2.0,64,0.00,,,0.02,WUHU21636XXSP,2013-07-02 18:45:00,
2013-07-02 20:50:00,73.8,61.1,29.98,WNW,293,0.0,2.0,64,0.00,,,0.02,WUHU21636XXSP,2013-07-02 18:50:00,
2013-07-02 20:55:00,73.6,60.9,29.98,WNW,293,0.0,0.0,64,0.00,,,0.02,WUHU21636XXSP,2013-07-02 18:55:00,
2013-07-02 21:00:00,73.4,60.2,29.98,WNW,293,0.0,0.0,63,0.00,,,0.02,WUHU21636XXSP,2013-07-02 19:00:00,
2013-07-02 21:05:00,73.2,60.5,29.98,WNW,293,0.0,0.0,64,0.00,,,0.02,WUHU21636XXSP,2013-07-02 19:05:00,
2013-07-02 21:10:00,73.0,59.9,29.98,WNW,293,0.0,0.0,63,0.00,,,0.02,WUHU21636XXSP,2013-07-02 19:10:00,
2013-07-02 21:15:00,72.7,60.0,29.98,WNW,293,0.0,0.0,64,0.00,,,0.02,WUHU21636XXSP,2013-07-02 19:15:00,
2013-07-02 21:20:00,72.3,60.1,29.98,WNW,293,0.0,0.0,65,0.00,,,0.02,WUHU21636XXSP,2013-07-02 19:20:00,
2013-07-02 21:25:00,72.1,59.9,29.98,WNW,293,0.0,0.0,65,0.00,,,0.02,WUHU21636XXSP,2013-07-02 19:25:00,
2013-07-02 21:30:00,71.4,59.6,29.98,WNW,293,0.0,0.0,66,0.00,,,0.02,WUHU21636XXSP,2013-07-02 19:30:00,
2013-07-02 21:35:00,71.4,60.1,29.98,WNW,293,0.0,0.0,67,0.00,,,0.02,WUHU21636XXSP,2013-07-02 19:35:00,
2013-07-02 21:40:00,71.1,59.8,29.98,WNW,293,1.1,1.1,67,0.00,,,0.02,WUHU21636XXSP,2013-07-02 19:40:00,
2013-07-02 21:45:00,70.7,59.4,29.99,WNW,293,0.0,1.1,67,0.00,,,0.02,WUHU21636XXSP,2013-07-02 19:45:00,
2013-07-02 21:50:00,70.5,59.6,29.99,WNW,293,0.0,1.1,68,0.00,,,0.02,WUHU21636XXSP,2013-07-02 19:50:00,
2013-07-02 21:55:00,70.2,59.3,29.99,WNW,293,0.0,0.0,68,0.00,,,0.02,WUHU21636XXSP,2013-07-02 19:55:00,
2013-07-02 22:00:00,69.6,59.6,29.99,ESE,113,1.1,1.1,70,0.00,,,0.02,WUHU21636XXSP,2013-07-02 20:00:00,
2013-07-02 22:05:00,69.4,59.4,29.99,SE,135,0.0,1.1,70,0.00,,,0.02,WUHU21636XXSP,2013-07-02 20:05:00,
2013-07-02 22:10:00,69.3,59.7,29.99,SSW,203,0.0,1.1,71,0.00,,,0.02,WUHU21636XXSP,2013-07-02 20:10:00,
2013-07-02 22:15:00,68.9,59.3,29.99,West,270,0.0,0.0,71,0.00,,,0.02,WUHU21636XXSP,2013-07-02 20:15:00,
2013-07-02 22:20:00,68.5,58.9,29.99,WSW,248,0.0,0.0,71,0.00,,,0.02,WUHU21636XXSP,2013-07-02 20:20:00,
2013-07-02 22:25:00,68.2,59.0,29.99,SW,225,0.0,0.0,72,0.00,,,0.02,WUHU21636XXSP,2013-07-02 20:25:00,
2013-07-02 22:30:00,68.0,59.2,29.99,SE,135,0.0,0.0,73,0.00,,,0.02,WUHU21636XXSP,2013-07-02 20:30:00,
2013-07-02 22:35:00,67.6,59.5,29.99,SE,135,0.0,0.0,75,0.00,,,0.02,WUHU21636XXSP,2013-07-02 20:35:00,
2013-07-02 22:40:00,67.3,59.2,29.99,SE,135,1.6,1.6,75,0.00,,,0.02,WUHU21636XXSP,2013-07-02 20:40:00,
2013-07-02 22:45:00,66.9,59.2,29.99,SE,135,0.7,1.6,76,0.00,,,0.02,WUHU21636XXSP,2013-07-02 20:45:00,
2013-07-02 23:05:00,65.5,58.5,29.99,SE,135,0.0,0.0,78,0.00,,,0.02,WUHU21636XXSP,2013-07-02 21:05:00,
2013-07-02 23:10:00,65.3,58.4,29.99,SE,135,0.0,0.0,78,0.00,,,0.02,WUHU21636XXSP,2013-07-02 21:10:00,
2013-07-02 23:15:00,65.1,58.5,29.99,SE,135,2.0,2.0,79,0.00,,,0.02,WUHU21636XXSP,2013-07-02 21:15:00,
2013-07-02 23:20:00,64.9,58.3,29.99,SE,135,0.9,2.0,79,0.00,,,0.02,WUHU21636XXSP,2013-07-02 21:20:00,
2013-07-02 23:25:00,64.6,58.0,29.99,SE,135,0.9,2.0,79,0.00,,,0.02,WUHU21636XXSP,2013-07-02 21:25:00,
2013-07-02 23:30:00,64.6,58.4,29.99,ESE,113,1.3,1.3,80,0.00,,,0.02,WUHU21636XXSP,2013-07-02 21:30:00,
2013-07-02 23:35:00,64.2,58.0,29.99,SE,135,0.0,1.3,80,0.00,,,0.02,WUHU21636XXSP,2013-07-02 21:35:00,
2013-07-02 23:40:00,64.0,57.8,29.99,SE,135,1.1,1.3,80,0.00,,,0.02,WUHU21636XXSP,2013-07-02 21:40:00,
2013-07-02 23:45:00,63.7,57.8,29.99,SE,135,1.3,1.3,81,0.00,,,0.02,WUHU21636XXSP,2013-07-02 21:45:00,
2013-07-02 23:50:00,63.3,57.8,29.99,ESE,113,0.7,1.3,82,0.00,,,0.02,WUHU21636XXSP,2013-07-02 21:50:00,
2013-07-02 23:55:00,63.1,57.6,29.99,ESE,113,1.3,1.3,82,0.00,,,0.02,WUHU21636XXSP,2013-07-02 21:55:00,